NCAR-RAP Real-Time Weather Data

Output produced by METARs form (12 August 2020  18:33 UTC)
found at http://weather.rap.ucar.edu/surface/
 
KICT 121753Z 11013KT 10SM SCT012 SCT085 SCT180 25/21 A2995 RMK AO2 SLP127 T02500206 10250 20211 58033
KICT 121742Z 11009KT 10SM SCT012 SCT085 BKN180 24/21 A2997 RMK AO2 T02440206
KICT 121708Z 08004KT 10SM OVC010 23/20 A3004 RMK AO2 T02330200
KICT 121653Z VRB03KT 10SM OVC009 23/20 A3005 RMK AO2 PK WND 11028/1620 SLP163 T02330200
KICT 121641Z 13015G22KT 10SM OVC009 23/20 A3000 RMK AO2 PK WND 11028/1620 T02280200
KICT 121625Z 11020G28KT 10SM BKN011 23/19 A2997 RMK AO2 PK WND 11028/1620 T02330194
KICT 121553Z 12021G26KT 10SM SCT016 BKN030 OVC100 24/20 A2998 RMK AO2 PK WND 12026/1551 PRESFR SLP137 T02390200
KICT 121540Z 11012KT 10SM BKN016 BKN030 OVC100 24/20 A3000 RMK AO2 PRESFR T02390200
KICT 121453Z 33005KT 10SM SCT009 BKN011 OVC030 23/20 A3005 RMK AO2 SLP163 T02280200 50006
KICT 121353Z 00000KT 10SM OVC008 22/20 A3005 RMK AO2 SLP164 T02220200
KICT 121253Z 08005KT 10SM OVC006 22/20 A3003 RMK AO2 SLP155 T02220200
KICT 121218Z 07005KT 10SM OVC005 22/20 A3003 RMK AO2 PRESRR T02170200
KICT 121153Z 14007KT 10SM OVC003 21/20 A2999 RMK AO2 SLP142 T02110200 10228 20211 53010
KICT 121053Z 14012KT 9SM OVC004 22/20 A2995 RMK AO2 SLP127 T02170200
KICT 120953Z 12004KT 10SM BKN005 BKN200 21/19 A2994 RMK AO2 SLP123 T02110194
KICT 120853Z 11005KT 10SM OVC005 22/21 A2996 RMK AO2 SLP129 T02220206 58006
KICT 120753Z 00000KT 10SM OVC007 23/21 A2997 RMK AO2 SLP133 T02280206
KICT 120740Z 13003KT 10SM BKN008 BKN180 23/21 A2998 RMK AO2 T02280206
KICT 120653Z 00000KT 10SM FEW006 SCT180 22/20 A2998 RMK AO2 SLP137 T02220200
KICT 120553Z 16006KT 10SM FEW180 23/21 A2998 RMK AO2 SLP136 T02280206 10300 20228 403170211 51003
KICT 120453Z 14010KT 10SM FEW180 24/20 A2998 RMK AO2 SLP135 T02440200
KICT 120353Z 12008KT 10SM FEW180 24/20 A2998 RMK AO2 SLP135 T02440200
KICT 120253Z 15005KT 10SM CLR 24/20 A2997 RMK AO2 SLP134 T02390200 53011
KICT 120153Z 15008KT 10SM FEW180 27/20 A2994 RMK AO2 SLP125 T02670200
KICT 120053Z 16010KT 10SM FEW010 FEW180 28/20 A2993 RMK AO2 SLP121 FU FEW010 T02830200
KICT 112353Z 16009KT 10SM FEW010 FEW040 FEW180 30/20 A2993 RMK AO2 SLP121 FU FEW010 T03000200 10317 20289 56004
KICT 112253Z 16010KT 10SM FEW045 FEW180 31/19 A2994 RMK AO2 SLP122 T03110194
KICT 112153Z 13011KT 10SM FEW045 32/20 A2994 RMK AO2 SLP121 T03170200
KICT 112053Z 20005KT 10SM FEW045 31/20 A2995 RMK AO2 SLP124 T03060200 56012
KICT 111953Z 19007KT 10SM FEW045 FEW220 30/20 A2996 RMK AO2 SLP130 T03000200
KICT 111853Z 16009KT 10SM FEW040 FEW220 30/21 A2996 RMK AO2 SLP130 T03000206
KICT 111753Z 18011G19KT 10SM FEW040 FEW220 29/20 A2998 RMK AO2 SLP137 T02940200 10294 20211 58006
KICT 111653Z 18013KT 10SM FEW180 FEW220 29/19 A3000 RMK AO2 SLP146 T02890194
KICT 111553Z 14009KT 10SM FEW150 FEW220 28/19 A3001 RMK AO2 SLP146 T02830189
KICT 111453Z 12006KT 10SM SCT150 SCT200 27/18 A3000 RMK AO2 SLP147 T02670183 51012
KICT 111353Z 09004KT 10SM FEW120 BKN150 BKN200 24/18 A3000 RMK AO2 SLP145 T02390183
KICT 111253Z 04004KT 10SM FEW120 BKN150 BKN220 23/18 A2999 RMK AO2 SLP140 T02280178
KICT 111153Z 11005KT 10SM FEW110 BKN140 BKN200 22/17 A2997 RMK AO2 SLP133 60000 70070 T02170172 10261 20211 53012
KICT 111053Z 07007KT 10SM FEW110 BKN140 BKN200 22/17 A2995 RMK AO2 SLP125 T02220172
KICT 110953Z 08008KT 10SM FEW090 BKN120 BKN150 BKN200 23/17 A2995 RMK AO2 SLP124 T02280172
KICT 110853Z 01006KT 10SM FEW090 BKN110 BKN140 BKN180 24/16 A2993 RMK AO2 WSHFT 0740 SLP119 60000 T02390161 55008
KICT 110800Z 08009G30KT 10SM FEW090 BKN110 BKN140 BKN180 24/16 A2990 RMK AO2 WSHFT 0740 PRESRR T02440161
KICT 110753Z 09015G30KT 10SM FEW090 BKN110 BKN140 BKN180 26/16 A2989 RMK AO2 PK WND 23036/0656 WSHFT 0736 PRESRR SLP104 T02560156
KICT 110653Z 21023G29KT 10SM BKN095 BKN110 BKN140 OVC170 26/15 A2987 RMK AO2 PK WND 25031/0638 RAE39 SLP098 CB DSIPTD P0000 T02560150
KICT 110553Z 20016KT 10SM -RA BKN110 BKN150 OVC170 23/17 A2996 RMK AO2 TSE10 PRESFR SLP127 OCNL LTGICCCCG DSNT SE CB DSNT SE MOV E TS MOVD E P0008 60065 T02330167 10289 20217 403220217 58010
KICT 110516Z 25005KT 7SM -RA SCT090 BKN120 OVC140 22/18 A3001 RMK AO2 TSE10 OCNL LTGICCCCG DSNT SE CB DSNT SE MOV E TS MOVD E P0006 T02170183
KICT 110453Z 26012KT 9SM TSRA FEW040CB SCT080 BKN090 OVC130 22/18 A3001 RMK AO2 PK WND 26026/0440 PRESRR SLP150 OCNL LTGICCCCG VC S-SW TS VC S-SW MOV E P0003 T02220178
KICT 110353Z 25019KT 9SM -TSRA FEW040CB SCT080 BKN090 OVC130 22/18 A2999 RMK AO2 PK WND 23026/0339 WSHFT 0255 SLP142 OCNL LTGICCCCG VC S-SW TS VC S-SW MOV E P0048 T02220183
KICT 110316Z 16008G18KT 3SM +TSRA BKN043CB BKN080 OVC100 22/18 A2999 RMK AO2 WSHFT 0255 FRQ LTGICCCCG ALQDS TS ALQDS MOV E P0033 T02220183
KICT 110309Z 24010G18KT 1 3/4SM +TSRA BKN041 BKN070 OVC090 22/18 A2997 RMK AO2 WSHFT 0255 FRQ LTGICCCCG VC SW-NW TS VC SW-NW MOV E P0023 T02220183
KICT 110253Z 29021G34KT 2 1/2SM +TSRA BKN049 BKN060CB OVC080 22/19 A2999 RMK AO2 PK WND 28038/0238 WSHFT 0200 RAB33 TSB22 SLP140 FRQ LTGICCCCG VC SW-NW TS VC SW-NW MOV E P0006 60006 T02220189 51031
KICT 110251Z 28023G34KT 2 1/2SM +TSRA BKN049 BKN060CB OVC080 22/19 A2999 RMK AO2 PK WND 28038/0238 WSHFT 0200 RAB33 TSB22 FRQ LTGICCCCG VC SW-NW TS VC SW-NW MOV E P0003
KICT 110228Z 29018G31KT 10SM TS BKN050CB BKN060 BKN085 OVC150 24/18 A2997 RMK AO2 PK WND 31036/0206 WSHFT 0200 TSB22 FRQ LTGICCCCG VC SW-NW TS VC SW-NW MOV E T02440183
KICT 110153Z 16005KT 10SM FEW040 FEW080 SCT110 BKN150 BKN180 OVC210 27/17 A2990 RMK AO2 SLP110 FRQ LTGICCC DSNT SW-NW CB DSNT SW-NW MOV E T02670172
KICT 110053Z 18006KT 10SM FEW110 SCT150 BKN180 OVC210 27/19 A2989 RMK AO2 SLP107 T02720189
KICT 102353Z 15007KT 10SM FEW040 FEW080 SCT110 SCT150 BKN180 BKN210 29/19 A2991 RMK AO2 SLP111 60000 T02890194 10322 20289 55005
KICT 102253Z 16013G21KT 10SM FEW045 FEW110 FEW150 SCT180 SCT210 31/20 A2988 RMK AO2 RAB2156E16 SLP103 CB DSNT SE AND SW MOV SE P0000 T03110200
KICT 102153Z COR 18006KT 10SM FEW030 FEW110 FEW150 SCT200 31/21 A2987 RMK AO2 SLP097 T03110211
KICT 102053Z 17005KT 10SM FEW035 FEW100 SCT150 BKN200 29/21 A2992 RMK AO2 RAE09 SLP116 CB DSNT S-SW MOV SE P0000 60000 T02940211 58007
KICT 101953Z 20003KT 10SM -RA FEW040 FEW110 SCT150 BKN200 31/21 A2995 RMK AO2 RAB46 SLP126 PCPN VRY LGT P0000 T03060206
KICT 101853Z 18008KT 10SM FEW100 SCT150 SCT200 31/22 A2993 RMK AO2 SLP118 T03060222